sensor_id;sensor_type;location;lat;lon;timestamp;pressure;altitude;pressure_sealevel;temperature;humidity
21728;BME280;11026;50.560;17.852;2024-03-25T00:01:07;98134.13;;;3.33;100.00
21728;BME280;11026;50.560;17.852;2024-03-25T00:03:33;98132.41;;;3.32;100.00
21728;BME280;11026;50.560;17.852;2024-03-25T00:06:00;98132.47;;;3.30;100.00
21728;BME280;11026;50.560;17.852;2024-03-25T00:08:26;98137.41;;;3.38;100.00
21728;BME280;11026;50.560;17.852;2024-03-25T00:10:56;98140.94;;;3.37;100.00
21728;BME280;11026;50.560;17.852;2024-03-25T00:13:22;98129.78;;;3.32;100.00
21728;BME280;11026;50.560;17.852;2024-03-25T00:15:49;98132.47;;;3.30;100.00
21728;BME280;11026;50.560;17.852;2024-03-25T00:18:17;98126.66;;;3.22;100.00
21728;BME280;11026;50.560;17.852;2024-03-25T00:20:44;98134.44;;;3.24;100.00
21728;BME280;11026;50.560;17.852;2024-03-25T00:23:14;98126.09;;;3.37;100.00
21728;BME280;11026;50.560;17.852;2024-03-25T00:25:42;98126.22;;;3.34;100.00
21728;BME280;11026;50.560;17.852;2024-03-25T00:28:08;98128.72;;;3.37;100.00
21728;BME280;11026;50.560;17.852;2024-03-25T00:30:34;98130.47;;;3.37;100.00
21728;BME280;11026;50.560;17.852;2024-03-25T00:33:00;98127.06;;;3.35;100.00
21728;BME280;11026;50.560;17.852;2024-03-25T00:35:26;98122.69;;;3.35;100.00
21728;BME280;11026;50.560;17.852;2024-03-25T00:37:53;98126.22;;;3.34;100.00
21728;BME280;11026;50.560;17.852;2024-03-25T00:40:19;98124.72;;;3.27;100.00
21728;BME280;11026;50.560;17.852;2024-03-25T00:42:46;98128.91;;;3.33;100.00
21728;BME280;11026;50.560;17.852;2024-03-25T00:45:12;98121.19;;;3.28;100.00
21728;BME280;11026;50.560;17.852;2024-03-25T00:47:39;98108.94;;;3.30;100.00
21728;BME280;11026;50.560;17.852;2024-03-25T00:50:06;98109.28;;;3.21;100.00
21728;BME280;11026;50.560;17.852;2024-03-25T00:52:33;98105.88;;;3.19;100.00
21728;BME280;11026;50.560;17.852;2024-03-25T00:54:59;98102.22;;;3.23;100.00
21728;BME280;11026;50.560;17.852;2024-03-25T00:57:25;98103.34;;;3.16;100.00
21728;BME280;11026;50.560;17.852;2024-03-25T00:59:51;98096.63;;;3.10;100.00
21728;BME280;11026;50.560;17.852;2024-03-25T01:02:18;98105.66;;;3.02;100.00
21728;BME280;11026;50.560;17.852;2024-03-25T01:04:45;98098.97;;;2.93;100.00
21728;BME280;11026;50.560;17.852;2024-03-25T01:07:11;98102.28;;;2.98;100.00
21728;BME280;11026;50.560;17.852;2024-03-25T01:09:37;98092.59;;;3.02;100.00
21728;BME280;11026;50.560;17.852;2024-03-25T01:12:04;98089.16;;;3.00;100.00
21728;BME280;11026;50.560;17.852;2024-03-25T01:14:33;98090.19;;;2.95;100.00
21728;BME280;11026;50.560;17.852;2024-03-25T01:16:59;98093.03;;;2.89;100.00
21728;BME280;11026;50.560;17.852;2024-03-25T01:19:29;98086.94;;;2.89;100.00
21728;BME280;11026;50.560;17.852;2024-03-25T01:21:59;98093.16;;;2.85;100.00
21728;BME280;11026;50.560;17.852;2024-03-25T01:24:25;98094.09;;;2.84;100.00
21728;BME280;11026;50.560;17.852;2024-03-25T01:26:51;98091.53;;;2.82;100.00
21728;BME280;11026;50.560;17.852;2024-03-25T01:29:17;98095.66;;;2.89;100.00
21728;BME280;11026;50.560;17.852;2024-03-25T01:31:48;98088.75;;;2.87;100.00
21728;BME280;11026;50.560;17.852;2024-03-25T01:34:15;98087.75;;;2.91;100.00
21728;BME280;11026;50.560;17.852;2024-03-25T01:36:41;98084.91;;;2.97;100.00
21728;BME280;11026;50.560;17.852;2024-03-25T01:39:07;98085.22;;;2.88;100.00
21728;BME280;11026;50.560;17.852;2024-03-25T01:41:33;98093.06;;;2.88;100.00
21728;BME280;11026;50.560;17.852;2024-03-25T01:44:01;98089.09;;;2.78;100.00
21728;BME280;11026;50.560;17.852;2024-03-25T01:46:28;98092.72;;;2.74;100.00
21728;BME280;11026;50.560;17.852;2024-03-25T01:48:56;98088.28;;;2.76;100.00
21728;BME280;11026;50.560;17.852;2024-03-25T01:51:24;98095.69;;;2.88;100.00
21728;BME280;11026;50.560;17.852;2024-03-25T01:53:52;98088.53;;;2.93;100.00
21728;BME280;11026;50.560;17.852;2024-03-25T01:56:20;98085.63;;;3.01;100.00
21728;BME280;11026;50.560;17.852;2024-03-25T01:58:49;98096.06;;;3.01;100.00
21728;BME280;11026;50.560;17.852;2024-03-25T02:01:17;98084.91;;;2.97;100.00
21728;BME280;11026;50.560;17.852;2024-03-25T02:03:46;98094.66;;;2.92;100.00
21728;BME280;11026;50.560;17.852;2024-03-25T02:06:18;98089.22;;;2.98;100.00
21728;BME280;11026;50.560;17.852;2024-03-25T02:08:47;98088.41;;;2.96;100.00
21728;BME280;11026;50.560;17.852;2024-03-25T02:11:16;98081.59;;;2.92;100.00
21728;BME280;11026;50.560;17.852;2024-03-25T02:13:42;98089.09;;;2.78;100.00
21728;BME280;11026;50.560;17.852;2024-03-25T02:16:08;98085.13;;;2.91;100.00
21728;BME280;11026;50.560;17.852;2024-03-25T02:18:37;98095.09;;;2.80;100.00
21728;BME280;11026;50.560;17.852;2024-03-25T02:21:03;98102.59;;;2.89;100.00
21728;BME280;11026;50.560;17.852;2024-03-25T02:23:31;98093.97;;;2.87;100.00
21728;BME280;11026;50.560;17.852;2024-03-25T02:26:00;98099.16;;;3.12;100.00
21728;BME280;11026;50.560;17.852;2024-03-25T02:28:26;98095.25;;;3.24;100.00
21728;BME280;11026;50.560;17.852;2024-03-25T02:30:52;98101.78;;;3.35;100.00
21728;BME280;11026;50.560;17.852;2024-03-25T02:33:21;98102.41;;;3.42;100.00
21728;BME280;11026;50.560;17.852;2024-03-25T02:35:47;98094.00;;;3.34;100.00
21728;BME280;11026;50.560;17.852;2024-03-25T02:38:15;98100.94;;;3.35;100.00
21728;BME280;11026;50.560;17.852;2024-03-25T02:40:44;98092.16;;;3.36;100.00
21728;BME280;11026;50.560;17.852;2024-03-25T02:43:13;98089.84;;;3.28;100.00
21728;BME280;11026;50.560;17.852;2024-03-25T02:45:41;98084.00;;;3.22;100.00
21728;BME280;11026;50.560;17.852;2024-03-25T02:48:08;98084.84;;;3.22;100.00
21728;BME280;11026;50.560;17.852;2024-03-25T02:50:34;98083.94;;;3.23;100.00
21728;BME280;11026;50.560;17.852;2024-03-25T02:53:03;98089.25;;;3.22;100.00
21728;BME280;11026;50.560;17.852;2024-03-25T02:55:30;98084.84;;;3.22;100.00
21728;BME280;11026;50.560;17.852;2024-03-25T02:57:56;98091.78;;;3.23;100.00
21728;BME280;11026;50.560;17.852;2024-03-25T03:00:22;98094.31;;;3.25;100.00
21728;BME280;11026;50.560;17.852;2024-03-25T03:02:48;98091.78;;;3.23;100.00
21728;BME280;11026;50.560;17.852;2024-03-25T03:05:16;98092.41;;;3.30;100.00
21728;BME280;11026;50.560;17.852;2024-03-25T03:07:42;98094.09;;;3.31;100.00
21728;BME280;11026;50.560;17.852;2024-03-25T03:10:08;98092.41;;;3.30;100.00
21728;BME280;11026;50.560;17.852;2024-03-25T03:12:35;98100.28;;;3.28;100.00
21728;BME280;11026;50.560;17.852;2024-03-25T03:15:00;98094.09;;;3.31;100.00
21728;BME280;11026;50.560;17.852;2024-03-25T03:17:27;98089.97;;;3.25;100.00
21728;BME280;11026;50.560;17.852;2024-03-25T03:19:53;98088.50;;;3.18;100.00
21728;BME280;11026;50.560;17.852;2024-03-25T03:22:19;98090.94;;;3.23;100.00
21728;BME280;11026;50.560;17.852;2024-03-25T03:24:45;98094.41;;;3.23;100.00
21728;BME280;11026;50.560;17.852;2024-03-25T03:27:11;98094.09;;;3.31;100.00
21728;BME280;11026;50.560;17.852;2024-03-25T03:29:38;98092.13;;;3.37;100.00
21728;BME280;11026;50.560;17.852;2024-03-25T03:32:05;98093.91;;;3.37;100.00
21728;BME280;11026;50.560;17.852;2024-03-25T03:34:32;98094.44;;;3.45;100.00
21728;BME280;11026;50.560;17.852;2024-03-25T03:36:59;98093.16;;;3.33;100.00
21728;BME280;11026;50.560;17.852;2024-03-25T03:39:25;98091.38;;;3.34;100.00
21728;BME280;11026;50.560;17.852;2024-03-25T03:41:51;98092.31;;;3.33;100.00
21728;BME280;11026;50.560;17.852;2024-03-25T03:44:17;98089.72;;;3.31;100.00
21728;BME280;11026;50.560;17.852;2024-03-25T03:46:45;98094.09;;;3.31;100.00
21728;BME280;11026;50.560;17.852;2024-03-25T03:49:10;98092.16;;;3.36;100.00
21728;BME280;11026;50.560;17.852;2024-03-25T03:51:36;98092.16;;;3.36;100.00
21728;BME280;11026;50.560;17.852;2024-03-25T03:54:02;98095.59;;;3.38;100.00
21728;BME280;11026;50.560;17.852;2024-03-25T03:56:32;98095.47;;;3.41;100.00
21728;BME280;11026;50.560;17.852;2024-03-25T03:58:58;98104.09;;;3.43;100.00
21728;BME280;11026;50.560;17.852;2024-03-25T04:01:25;98102.28;;;3.45;100.00
21728;BME280;11026;50.560;17.852;2024-03-25T04:03:53;98098.88;;;3.43;100.00
21728;BME280;11026;50.560;17.852;2024-03-25T04:06:20;98096.91;;;3.48;100.00
21728;BME280;11026;50.560;17.852;2024-03-25T04:08:48;98093.28;;;3.52;100.00
21728;BME280;11026;50.560;17.852;2024-03-25T04:11:15;98097.38;;;3.59;100.00
21728;BME280;11026;50.560;17.852;2024-03-25T04:13:41;98096.22;;;3.66;100.00
21728;BME280;11026;50.560;17.852;2024-03-25T04:16:08;98086.44;;;3.72;100.00
21728;BME280;11026;50.560;17.852;2024-03-25T04:18:35;98100.06;;;3.80;100.00
21728;BME280;11026;50.560;17.852;2024-03-25T04:21:05;98093.94;;;3.81;100.00
21728;BME280;11026;50.560;17.852;2024-03-25T04:23:32;98099.75;;;3.87;100.00
21728;BME280;11026;50.560;17.852;2024-03-25T04:26:01;98093.66;;;3.87;100.00
21728;BME280;11026;50.560;17.852;2024-03-25T04:28:29;98090.09;;;3.89;100.00
21728;BME280;11026;50.560;17.852;2024-03-25T04:30:55;98093.44;;;3.93;100.00
21728;BME280;11026;50.560;17.852;2024-03-25T04:33:22;98096.84;;;3.95;100.00
21728;BME280;11026;50.560;17.852;2024-03-25T04:35:49;98101.22;;;3.94;100.00
21728;BME280;11026;50.560;17.852;2024-03-25T04:38:16;98098.56;;;3.96;100.00
21728;BME280;11026;50.560;17.852;2024-03-25T04:40:43;98103.78;;;3.96;100.00
21728;BME280;11026;50.560;17.852;2024-03-25T04:43:10;98107.28;;;3.95;100.00
21728;BME280;11026;50.560;17.852;2024-03-25T04:45:38;98101.03;;;3.99;100.00
21728;BME280;11026;50.560;17.852;2024-03-25T04:48:05;98098.41;;;3.99;100.00
21728;BME280;11026;50.560;17.852;2024-03-25T04:50:31;98096.72;;;3.98;100.00
21728;BME280;11026;50.560;17.852;2024-03-25T04:52:57;98102.97;;;3.94;100.00
21728;BME280;11026;50.560;17.852;2024-03-25T04:55:23;98107.81;;;4.05;100.00
21728;BME280;11026;50.560;17.852;2024-03-25T04:57:49;98110.59;;;4.00;100.00
21728;BME280;11026;50.560;17.852;2024-03-25T05:00:15;98108.22;;;3.94;100.00
21728;BME280;11026;50.560;17.852;2024-03-25T05:02:42;98115.03;;;3.98;100.00
21728;BME280;11026;50.560;17.852;2024-03-25T05:05:08;98114.25;;;3.96;100.00
21728;BME280;11026;50.560;17.852;2024-03-25T05:07:36;98116.81;;;3.98;100.00
21728;BME280;11026;50.560;17.852;2024-03-25T05:10:02;98108.88;;;3.99;100.00
21728;BME280;11026;50.560;17.852;2024-03-25T05:12:28;98121.06;;;4.00;100.00
21728;BME280;11026;50.560;17.852;2024-03-25T05:15:02;98118.50;;;3.99;100.00
21728;BME280;11026;50.560;17.852;2024-03-25T05:17:28;98120.06;;;4.03;100.00
21728;BME280;11026;50.560;17.852;2024-03-25T05:19:55;98128.78;;;4.03;100.00
21728;BME280;11026;50.560;17.852;2024-03-25T05:22:22;98131.16;;;4.09;100.00
21728;BME280;11026;50.560;17.852;2024-03-25T05:24:47;98127.72;;;4.07;100.00
21728;BME280;11026;50.560;17.852;2024-03-25T05:27:13;98134.53;;;4.11;100.00
21728;BME280;11026;50.560;17.852;2024-03-25T05:29:39;98135.34;;;4.13;100.00
21728;BME280;11026;50.560;17.852;2024-03-25T05:32:08;98134.53;;;4.11;100.00
21728;BME280;11026;50.560;17.852;2024-03-25T05:34:36;98141.34;;;4.15;100.00
21728;BME280;11026;50.560;17.852;2024-03-25T05:37:03;98143.88;;;4.18;100.00
21728;BME280;11026;50.560;17.852;2024-03-25T05:39:30;98138.69;;;4.17;100.00
21728;BME280;11026;50.560;17.852;2024-03-25T05:41:56;98142.25;;;4.16;100.00
21728;BME280;11026;50.560;17.852;2024-03-25T05:44:21;98150.75;;;4.21;100.00
21728;BME280;11026;50.560;17.852;2024-03-25T05:46:48;98149.63;;;4.27;100.00
21728;BME280;11026;50.560;17.852;2024-03-25T05:49:15;98150.44;;;4.29;100.00
21728;BME280;11026;50.560;17.852;2024-03-25T05:51:40;98145.09;;;4.32;100.00
21728;BME280;11026;50.560;17.852;2024-03-25T05:54:06;98157.13;;;4.36;100.00
21728;BME280;11026;50.560;17.852;2024-03-25T05:56:33;98163.81;;;4.43;100.00
21728;BME280;11026;50.560;17.852;2024-03-25T05:59:00;98171.06;;;4.36;100.00
21728;BME280;11026;50.560;17.852;2024-03-25T06:01:28;98169.00;;;4.44;100.00
21728;BME280;11026;50.560;17.852;2024-03-25T06:03:54;98169.84;;;4.45;100.00
21728;BME280;11026;50.560;17.852;2024-03-25T06:06:24;98171.16;;;4.55;100.00
21728;BME280;11026;50.560;17.852;2024-03-25T06:08:50;98173.06;;;4.52;100.00
21728;BME280;11026;50.560;17.852;2024-03-25T06:11:16;98174.47;;;4.60;100.00
21728;BME280;11026;50.560;17.852;2024-03-25T06:13:48;98173.66;;;4.58;100.00
21728;BME280;11026;50.560;17.852;2024-03-25T06:16:14;98170.69;;;4.67;100.00
21728;BME280;11026;50.560;17.852;2024-03-25T06:18:42;98173.94;;;4.73;100.00
21728;BME280;11026;50.560;17.852;2024-03-25T06:21:09;98181.47;;;4.80;100.00
21728;BME280;11026;50.560;17.852;2024-03-25T06:23:38;98182.06;;;4.87;100.00
21728;BME280;11026;50.560;17.852;2024-03-25T06:26:07;98182.72;;;4.92;100.00
21728;BME280;11026;50.560;17.852;2024-03-25T06:28:34;98182.19;;;5.04;100.00
21728;BME280;11026;50.560;17.852;2024-03-25T06:31:01;98180.09;;;5.12;100.00
21728;BME280;11026;50.560;17.852;2024-03-25T06:33:43;98185.59;;;5.27;100.00
21728;BME280;11026;50.560;17.852;2024-03-25T06:36:23;98188.22;;;5.27;100.00
21728;BME280;11026;50.560;17.852;2024-03-25T06:38:49;98185.66;;;5.25;100.00
21728;BME280;11026;50.560;17.852;2024-03-25T06:41:15;98203.78;;;5.30;100.00
21728;BME280;11026;50.560;17.852;2024-03-25T06:43:41;98202.03;;;5.30;100.00
21728;BME280;11026;50.560;17.852;2024-03-25T06:46:09;98203.47;;;5.37;100.00
21728;BME280;11026;50.560;17.852;2024-03-25T06:48:37;98204.72;;;5.29;100.00
21728;BME280;11026;50.560;17.852;2024-03-25T06:51:02;98208.16;;;5.31;100.00
21728;BME280;11026;50.560;17.852;2024-03-25T06:53:29;98216.00;;;5.31;100.00
21728;BME280;11026;50.560;17.852;2024-03-25T06:55:59;98215.00;;;5.33;100.00
21728;BME280;11026;50.560;17.852;2024-03-25T06:58:26;98222.88;;;5.33;100.00
21728;BME280;11026;50.560;17.852;2024-03-25T07:00:55;98231.22;;;5.23;100.00
21728;BME280;11026;50.560;17.852;2024-03-25T07:03:23;98228.31;;;5.29;100.00
21728;BME280;11026;50.560;17.852;2024-03-25T07:05:51;98235.66;;;5.21;100.00
21728;BME280;11026;50.560;17.852;2024-03-25T07:08:26;98243.13;;;5.30;100.00
21728;BME280;11026;50.560;17.852;2024-03-25T07:10:53;98244.84;;;5.51;100.00
21728;BME280;11026;50.560;17.852;2024-03-25T07:13:20;98230.03;;;5.69;100.00
21728;BME280;11026;50.560;17.852;2024-03-25T07:15:46;98239.09;;;5.62;100.00
21728;BME280;11026;50.560;17.852;2024-03-25T07:18:13;98244.41;;;5.60;100.00
21728;BME280;11026;50.560;17.852;2024-03-25T07:20:40;98252.81;;;5.68;100.00
21728;BME280;11026;50.560;17.852;2024-03-25T07:23:07;98245.44;;;5.77;100.00
21728;BME280;11026;50.560;17.852;2024-03-25T07:25:33;98252.03;;;5.66;100.00
21728;BME280;11026;50.560;17.852;2024-03-25T07:28:00;98255.00;;;5.59;100.00
21728;BME280;11026;50.560;17.852;2024-03-25T07:30:26;98273.28;;;5.60;100.00
21728;BME280;11026;50.560;17.852;2024-03-25T07:32:56;98270.97;;;5.53;100.00
21728;BME280;11026;50.560;17.852;2024-03-25T07:35:22;98265.97;;;5.28;100.00
21728;BME280;11026;50.560;17.852;2024-03-25T07:37:49;98273.53;;;5.13;100.00
21728;BME280;11026;50.560;17.852;2024-03-25T07:40:18;98275.78;;;5.23;100.00
21728;BME280;11026;50.560;17.852;2024-03-25T07:42:45;98275.22;;;5.14;100.00
21728;BME280;11026;50.560;17.852;2024-03-25T07:45:11;98286.75;;;5.10;100.00
21728;BME280;11026;50.560;17.852;2024-03-25T07:47:37;98289.66;;;5.04;100.00
21728;BME280;11026;50.560;17.852;2024-03-25T07:50:03;98299.56;;;4.76;100.00
21728;BME280;11026;50.560;17.852;2024-03-25T07:52:31;98308.81;;;4.62;100.00
21728;BME280;11026;50.560;17.852;2024-03-25T07:54:57;98301.97;;;4.58;100.00
21728;BME280;11026;50.560;17.852;2024-03-25T07:57:24;98307.00;;;4.64;100.00
21728;BME280;11026;50.560;17.852;2024-03-25T07:59:50;98302.50;;;4.68;100.00
21728;BME280;11026;50.560;17.852;2024-03-25T08:02:16;98306.00;;;4.67;100.00
21728;BME280;11026;50.560;17.852;2024-03-25T08:04:42;98307.47;;;4.96;100.00
21728;BME280;11026;50.560;17.852;2024-03-25T08:07:08;98303.63;;;5.05;100.00
21728;BME280;11026;50.560;17.852;2024-03-25T08:09:37;98310.00;;;5.20;100.00
21728;BME280;11026;50.560;17.852;2024-03-25T08:12:03;98302.38;;;5.34;100.00
21728;BME280;11026;50.560;17.852;2024-03-25T08:14:29;98314.81;;;5.51;100.00
21728;BME280;11026;50.560;17.852;2024-03-25T08:16:56;98300.41;;;5.80;100.00
21728;BME280;11026;50.560;17.852;2024-03-25T08:19:22;98307.34;;;5.81;100.00
21728;BME280;11026;50.560;17.852;2024-03-25T08:21:48;98312.72;;;5.78;100.00
21728;BME280;11026;50.560;17.852;2024-03-25T08:24:14;98320.94;;;5.70;100.00
21728;BME280;11026;50.560;17.852;2024-03-25T08:26:42;98311.88;;;5.77;100.00
21728;BME280;11026;50.560;17.852;2024-03-25T08:29:08;98315.56;;;5.94;100.00
21728;BME280;11026;50.560;17.852;2024-03-25T08:31:36;98306.72;;;5.96;100.00
21728;BME280;11026;50.560;17.852;2024-03-25T08:34:05;98311.28;;;6.11;100.00
21728;BME280;11026;50.560;17.852;2024-03-25T08:36:31;98310.47;;;6.09;100.00
21728;BME280;11026;50.560;17.852;2024-03-25T08:38:57;98320.94;;;6.11;100.00
21728;BME280;11026;50.560;17.852;2024-03-25T08:41:24;98315.94;;;6.05;100.00
21728;BME280;11026;50.560;17.852;2024-03-25T08:43:50;98333.69;;;6.00;100.00
21728;BME280;11026;50.560;17.852;2024-03-25T08:46:16;98331.25;;;5.95;100.00
21728;BME280;11026;50.560;17.852;2024-03-25T08:48:42;98337.28;;;5.97;100.00
21728;BME280;11026;50.560;17.852;2024-03-25T08:51:08;98342.06;;;5.87;100.00
21728;BME280;11026;50.560;17.852;2024-03-25T08:53:34;98343.03;;;6.05;100.00
21728;BME280;11026;50.560;17.852;2024-03-25T08:56:00;98340.66;;;6.20;100.00
21728;BME280;11026;50.560;17.852;2024-03-25T08:58:27;98353.97;;;5.96;100.00
21728;BME280;11026;50.560;17.852;2024-03-25T09:00:54;98349.34;;;5.81;100.00
21728;BME280;11026;50.560;17.852;2024-03-25T09:03:19;98354.59;;;5.81;100.00
21728;BME280;11026;50.560;17.852;2024-03-25T09:05:47;98353.00;;;5.77;100.00
21728;BME280;11026;50.560;17.852;2024-03-25T09:08:13;98357.16;;;5.82;100.00
21728;BME280;11026;50.560;17.852;2024-03-25T09:10:45;98360.84;;;5.78;100.00
21728;BME280;11026;50.560;17.852;2024-03-25T09:13:25;98368.97;;;5.52;100.00
21728;BME280;11026;50.560;17.852;2024-03-25T09:15:51;98376.84;;;5.30;100.00
21728;BME280;11026;50.560;17.852;2024-03-25T09:18:17;98386.78;;;5.22;100.00
21728;BME280;11026;50.560;17.852;2024-03-25T09:20:44;98386.91;;;5.18;100.00
21728;BME280;11026;50.560;17.852;2024-03-25T09:23:10;98391.53;;;5.56;100.00
21728;BME280;11026;50.560;17.852;2024-03-25T09:25:50;98394.75;;;5.20;100.00
21728;BME280;11026;50.560;17.852;2024-03-25T09:28:16;98389.75;;;5.34;100.00
21728;BME280;11026;50.560;17.852;2024-03-25T09:30:42;98390.13;;;5.47;100.00
21728;BME280;11026;50.560;17.852;2024-03-25T09:33:08;98391.03;;;5.46;100.00
21728;BME280;11026;50.560;17.852;2024-03-25T09:35:34;98386.66;;;5.47;100.00
21728;BME280;11026;50.560;17.852;2024-03-25T09:38:02;98388.28;;;5.07;100.00
21728;BME280;11026;50.560;17.852;2024-03-25T09:40:28;98385.94;;;5.43;100.00
21728;BME280;11026;50.560;17.852;2024-03-25T09:43:02;98398.00;;;5.47;100.00
21728;BME280;11026;50.560;17.852;2024-03-25T09:45:29;98385.44;;;5.96;100.00
21728;BME280;11026;50.560;17.852;2024-03-25T09:47:56;98389.56;;;6.02;100.00
21728;BME280;11026;50.560;17.852;2024-03-25T09:50:22;98392.88;;;6.07;100.00
21728;BME280;11026;50.560;17.852;2024-03-25T09:52:49;98390.63;;;6.37;100.00
21728;BME280;11026;50.560;17.852;2024-03-25T09:55:16;98386.91;;;7.17;100.00
21728;BME280;11026;50.560;17.852;2024-03-25T09:57:43;98383.56;;;7.49;100.00
21728;BME280;11026;50.560;17.852;2024-03-25T10:00:11;98394.47;;;7.59;100.00
21728;BME280;11026;50.560;17.852;2024-03-25T10:02:42;98395.19;;;7.97;100.00
21728;BME280;11026;50.560;17.852;2024-03-25T10:05:09;98394.59;;;7.92;100.00
21728;BME280;11026;50.560;17.852;2024-03-25T10:07:35;98404.47;;;7.87;100.00
21728;BME280;11026;50.560;17.852;2024-03-25T10:10:07;98389.00;;;7.81;100.00
21728;BME280;11026;50.560;17.852;2024-03-25T10:12:37;98402.00;;;7.49;100.00
21728;BME280;11026;50.560;17.852;2024-03-25T10:15:04;98417.56;;;7.18;100.00
21728;BME280;11026;50.560;17.852;2024-03-25T10:17:31;98421.41;;;6.73;100.00
21728;BME280;11026;50.560;17.852;2024-03-25T10:19:57;98416.09;;;6.55;100.00
21728;BME280;11026;50.560;17.852;2024-03-25T10:22:24;98426.72;;;6.52;100.00
21728;BME280;11026;50.560;17.852;2024-03-25T10:24:51;98418.91;;;6.88;100.00
21728;BME280;11026;50.560;17.852;2024-03-25T10:27:19;98417.78;;;7.13;100.00
21728;BME280;11026;50.560;17.852;2024-03-25T10:29:51;98423.03;;;7.49;100.00
21728;BME280;11026;50.560;17.852;2024-03-25T10:32:19;98423.28;;;7.45;100.00
21728;BME280;11026;50.560;17.852;2024-03-25T10:34:45;98428.81;;;7.38;100.00
21728;BME280;11026;50.560;17.852;2024-03-25T10:37:14;98424.25;;;7.25;100.00
21728;BME280;11026;50.560;17.852;2024-03-25T10:39:50;98420.56;;;7.63;100.00
21728;BME280;11026;50.560;17.852;2024-03-25T10:42:22;98435.13;;;7.71;100.00
21728;BME280;11026;50.560;17.852;2024-03-25T10:44:49;98445.34;;;7.59;100.00
21728;BME280;11026;50.560;17.852;2024-03-25T10:47:25;98433.97;;;7.23;100.00
21728;BME280;11026;50.560;17.852;2024-03-25T10:49:58;98434.66;;;7.45;100.00
21728;BME280;11026;50.560;17.852;2024-03-25T10:52:26;98442.13;;;7.35;100.00
21728;BME280;11026;50.560;17.852;2024-03-25T10:54:52;98437.09;;;7.48;100.00
21728;BME280;11026;50.560;17.852;2024-03-25T10:57:20;98434.06;;;7.57;100.00
21728;BME280;11026;50.560;17.852;2024-03-25T10:59:47;98434.22;;;7.89;100.00
21728;BME280;11026;50.560;17.852;2024-03-25T11:02:15;98432.09;;;7.96;100.00
21728;BME280;11026;50.560;17.852;2024-03-25T11:04:43;98425.81;;;8.16;100.00
21728;BME280;11026;50.560;17.852;2024-03-25T11:07:12;98429.53;;;8.11;100.00
21728;BME280;11026;50.560;17.852;2024-03-25T11:09:43;98421.75;;;8.60;100.00
21728;BME280;11026;50.560;17.852;2024-03-25T11:12:12;98429.59;;;8.94;100.00
21728;BME280;11026;50.560;17.852;2024-03-25T11:14:40;98430.97;;;8.85;95.19
21728;BME280;11026;50.560;17.852;2024-03-25T11:17:16;98423.53;;;8.60;99.08
21728;BME280;11026;50.560;17.852;2024-03-25T11:19:42;98418.22;;;8.44;99.02
21728;BME280;11026;50.560;17.852;2024-03-25T11:22:11;98420.28;;;8.55;99.99
21728;BME280;11026;50.560;17.852;2024-03-25T11:24:43;98431.91;;;8.51;97.21
21728;BME280;11026;50.560;17.852;2024-03-25T11:27:09;98421.94;;;8.23;97.99
21728;BME280;11026;50.560;17.852;2024-03-25T11:29:35;98411.22;;;8.60;100.00
21728;BME280;11026;50.560;17.852;2024-03-25T11:32:05;98418.19;;;8.77;99.05
21728;BME280;11026;50.560;17.852;2024-03-25T11:34:31;98423.47;;;8.77;91.19
21728;BME280;11026;50.560;17.852;2024-03-25T11:37:00;98399.00;;;8.75;87.69
21728;BME280;11026;50.560;17.852;2024-03-25T11:39:27;98433.84;;;8.80;87.69
21728;BME280;11026;50.560;17.852;2024-03-25T11:41:54;98427.38;;;8.70;85.68
21728;BME280;11026;50.560;17.852;2024-03-25T11:44:21;98432.94;;;8.48;86.40
21728;BME280;11026;50.560;17.852;2024-03-25T11:46:55;98434.56;;;8.84;84.76
21728;BME280;11026;50.560;17.852;2024-03-25T11:49:22;98432.66;;;9.49;86.24
21728;BME280;11026;50.560;17.852;2024-03-25T11:51:47;98421.63;;;9.73;83.81
21728;BME280;11026;50.560;17.852;2024-03-25T11:54:38;98438.72;;;9.51;80.97
21728;BME280;11026;50.560;17.852;2024-03-25T11:57:04;98446.56;;;9.21;80.41
21728;BME280;11026;50.560;17.852;2024-03-25T11:59:30;98436.78;;;9.39;80.34
21728;BME280;11026;50.560;17.852;2024-03-25T12:01:56;98433.72;;;9.31;80.18
21728;BME280;11026;50.560;17.852;2024-03-25T12:04:23;98439.16;;;9.12;78.08
21728;BME280;11026;50.560;17.852;2024-03-25T12:06:54;98445.31;;;8.64;77.65
21728;BME280;11026;50.560;17.852;2024-03-25T12:09:23;98445.25;;;8.81;81.70
21728;BME280;11026;50.560;17.852;2024-03-25T12:12:05;98435.41;;;9.16;78.71
21728;BME280;11026;50.560;17.852;2024-03-25T12:14:31;98438.78;;;9.50;77.49
21728;BME280;11026;50.560;17.852;2024-03-25T12:16:57;98432.59;;;9.81;75.08
21728;BME280;11026;50.560;17.852;2024-03-25T12:19:26;98435.19;;;10.27;72.35
21728;BME280;11026;50.560;17.852;2024-03-25T12:22:01;98416.41;;;10.60;73.47
21728;BME280;11026;50.560;17.852;2024-03-25T12:24:29;98422.53;;;10.61;69.66
21728;BME280;11026;50.560;17.852;2024-03-25T12:26:57;98429.63;;;11.44;70.67
21728;BME280;11026;50.560;17.852;2024-03-25T12:29:24;98423.78;;;11.79;67.65
21728;BME280;11026;50.560;17.852;2024-03-25T12:31:54;98418.00;;;11.60;65.03
21728;BME280;11026;50.560;17.852;2024-03-25T12:34:20;98434.31;;;9.82;72.31
21728;BME280;11026;50.560;17.852;2024-03-25T12:36:50;98437.88;;;9.81;76.61
21728;BME280;11026;50.560;17.852;2024-03-25T12:39:20;98429.56;;;9.57;76.68
21728;BME280;11026;50.560;17.852;2024-03-25T12:41:47;98450.97;;;9.36;80.89
21728;BME280;11026;50.560;17.852;2024-03-25T12:44:13;98453.31;;;8.78;82.58
21728;BME280;11026;50.560;17.852;2024-03-25T12:46:40;98457.44;;;8.50;85.02
21728;BME280;11026;50.560;17.852;2024-03-25T12:49:06;98442.84;;;8.60;82.35
21728;BME280;11026;50.560;17.852;2024-03-25T12:51:32;98443.34;;;9.62;78.05